Archival Weather

General Ignacio P Garcia Intl

General Ignacio P Garcia Intl, Mexico (MMHO)

Report from: Tuesday, September 19, 2023 5:40 PM CST
Current time: Friday, June 21, 2024 6:28 PM CST

Current weather – Weather history – Daily summaries
Weather forecast

Temperature39.0°C (102.2°F)
Heat index38.4°C (101.1°F)
Dew point13.0°C (55.4°F)
Winds 10 kts (5.1 m/s, 11.5 mph) West (270°)
Visibility10 mi. (16.1 km)
Clouds Sky clear
Altimeter29.79 in.Hg (1009 mB)
Relative humidity21 %
Density altitude3,094 ft. (943 m)
Sea-level pressure100.8 kPa (1008 mB, 29.76 in.Hg)
Remarks Corrected report
Pressure falling
Flight conditions Visual Meteorological Conditions
Raw dataCOR MMHO 192340Z 27010KT 10SM SKC 39/13 A2979 RMK SLP078 57012 960 HZY
An error has occurred. This application may no longer respond until reloaded. Reload 🗙